sensor_id;sensor_type;location;lat;lon;timestamp;P1;durP1;ratioP1;P2;durP2;ratioP2
69523;SDS011;56723;42.694;23.286;2023-03-12T00:46:47;4.37;;;3.60;;
69523;SDS011;56723;42.694;23.286;2023-03-12T00:49:14;5.50;;;3.37;;
69523;SDS011;56723;42.694;23.286;2023-03-12T00:51:41;6.07;;;3.17;;
69523;SDS011;56723;42.694;23.286;2023-03-12T00:54:08;7.40;;;3.80;;
69523;SDS011;56723;42.694;23.286;2023-03-12T00:56:35;4.20;;;3.23;;
69523;SDS011;56723;42.694;23.286;2023-03-12T00:59:03;6.20;;;3.70;;
69523;SDS011;56723;42.694;23.286;2023-03-12T01:01:29;8.43;;;3.33;;
69523;SDS011;56723;42.694;23.286;2023-03-12T01:03:56;4.03;;;3.50;;
69523;SDS011;56723;42.694;23.286;2023-03-12T05:35:13;4.50;;;2.83;;
69523;SDS011;56723;42.694;23.286;2023-03-12T05:37:41;5.53;;;2.92;;
69523;SDS011;56723;42.694;23.286;2023-03-12T05:40:10;4.17;;;2.47;;
69523;SDS011;56723;42.694;23.286;2023-03-12T05:42:38;2.93;;;2.10;;
69523;SDS011;56723;42.694;23.286;2023-03-12T05:45:07;3.47;;;2.10;;
69523;SDS011;56723;42.694;23.286;2023-03-12T05:47:37;3.10;;;2.17;;
69523;SDS011;56723;42.694;23.286;2023-03-12T05:50:04;5.60;;;2.03;;
69523;SDS011;56723;42.694;23.286;2023-03-12T05:52:31;3.07;;;1.70;;
69523;SDS011;56723;42.694;23.286;2023-03-12T05:54:58;4.83;;;2.00;;
69523;SDS011;56723;42.694;23.286;2023-03-12T05:57:25;4.23;;;2.07;;
69523;SDS011;56723;42.694;23.286;2023-03-12T05:59:52;4.57;;;1.87;;
69523;SDS011;56723;42.694;23.286;2023-03-12T06:02:19;4.47;;;2.13;;
69523;SDS011;56723;42.694;23.286;2023-03-12T06:04:47;4.53;;;2.00;;
69523;SDS011;56723;42.694;23.286;2023-03-12T06:35:47;2.77;;;1.13;;
69523;SDS011;56723;42.694;23.286;2023-03-12T06:38:14;5.00;;;1.80;;
69523;SDS011;56723;42.694;23.286;2023-03-12T06:40:41;2.43;;;1.10;;
69523;SDS011;56723;42.694;23.286;2023-03-12T06:43:08;5.17;;;1.63;;
69523;SDS011;56723;42.694;23.286;2023-03-12T06:48:04;4.87;;;1.27;;
69523;SDS011;56723;42.694;23.286;2023-03-12T06:50:31;3.27;;;1.63;;
69523;SDS011;56723;42.694;23.286;2023-03-12T06:52:58;5.03;;;1.63;;
69523;SDS011;56723;42.694;23.286;2023-03-12T06:55:25;3.67;;;1.30;;
69523;SDS011;56723;42.694;23.286;2023-03-12T06:57:51;4.47;;;2.67;;
69523;SDS011;56723;42.694;23.286;2023-03-12T07:00:18;2.73;;;1.07;;
69523;SDS011;56723;42.694;23.286;2023-03-12T07:02:45;1.73;;;0.77;;
69523;SDS011;56723;42.694;23.286;2023-03-12T07:05:12;2.77;;;1.17;;
69523;SDS011;56723;42.694;23.286;2023-03-12T07:07:39;2.57;;;1.17;;
69523;SDS011;56723;42.694;23.286;2023-03-12T07:10:06;2.50;;;1.30;;
69523;SDS011;56723;42.694;23.286;2023-03-12T07:12:35;3.03;;;1.10;;
69523;SDS011;56723;42.694;23.286;2023-03-12T07:15:02;2.97;;;1.47;;
69523;SDS011;56723;42.694;23.286;2023-03-12T07:35:20;2.10;;;1.07;;
69523;SDS011;56723;42.694;23.286;2023-03-12T07:37:47;4.30;;;1.20;;
69523;SDS011;56723;42.694;23.286;2023-03-12T07:40:14;4.67;;;1.03;;
69523;SDS011;56723;42.694;23.286;2023-03-12T07:42:41;3.50;;;1.10;;
69523;SDS011;56723;42.694;23.286;2023-03-12T07:45:09;1.87;;;0.83;;
69523;SDS011;56723;42.694;23.286;2023-03-12T07:47:36;1.30;;;0.90;;
69523;SDS011;56723;42.694;23.286;2023-03-12T07:50:05;2.30;;;0.98;;
69523;SDS011;56723;42.694;23.286;2023-03-12T07:52:33;2.07;;;0.50;;
69523;SDS011;56723;42.694;23.286;2023-03-12T07:55:00;2.87;;;1.00;;
69523;SDS011;56723;42.694;23.286;2023-03-12T07:57:27;2.40;;;0.80;;
69523;SDS011;56723;42.694;23.286;2023-03-12T07:59:54;1.57;;;0.80;;
69523;SDS011;56723;42.694;23.286;2023-03-12T08:02:21;1.70;;;0.77;;
69523;SDS011;56723;42.694;23.286;2023-03-12T08:04:48;5.00;;;1.43;;
69523;SDS011;56723;42.694;23.286;2023-03-12T08:07:15;3.13;;;1.53;;
69523;SDS011;56723;42.694;23.286;2023-03-12T08:09:42;2.77;;;1.70;;
69523;SDS011;56723;42.694;23.286;2023-03-12T08:12:09;2.37;;;1.93;;
69523;SDS011;56723;42.694;23.286;2023-03-12T08:14:36;2.87;;;1.37;;
69523;SDS011;56723;42.694;23.286;2023-03-12T08:17:03;2.33;;;1.30;;
69523;SDS011;56723;42.694;23.286;2023-03-12T08:19:30;3.40;;;1.47;;
69523;SDS011;56723;42.694;23.286;2023-03-12T08:21:57;2.57;;;1.20;;
69523;SDS011;56723;42.694;23.286;2023-03-12T08:24:24;2.53;;;1.40;;
69523;SDS011;56723;42.694;23.286;2023-03-12T08:26:51;2.40;;;1.37;;
69523;SDS011;56723;42.694;23.286;2023-03-12T08:29:20;3.15;;;1.30;;
69523;SDS011;56723;42.694;23.286;2023-03-12T08:31:48;3.00;;;1.30;;
69523;SDS011;56723;42.694;23.286;2023-03-12T08:34:30;1.87;;;1.00;;
69523;SDS011;56723;42.694;23.286;2023-03-12T08:36:57;1.70;;;0.97;;
69523;SDS011;56723;42.694;23.286;2023-03-12T08:39:24;2.20;;;1.10;;
69523;SDS011;56723;42.694;23.286;2023-03-12T08:41:53;2.90;;;1.10;;
69523;SDS011;56723;42.694;23.286;2023-03-12T08:44:21;2.50;;;1.10;;
69523;SDS011;56723;42.694;23.286;2023-03-12T08:46:50;2.42;;;0.82;;
69523;SDS011;56723;42.694;23.286;2023-03-12T08:49:18;2.23;;;1.00;;
69523;SDS011;56723;42.694;23.286;2023-03-12T08:51:46;2.60;;;1.00;;
69523;SDS011;56723;42.694;23.286;2023-03-12T08:54:13;2.67;;;0.90;;
69523;SDS011;56723;42.694;23.286;2023-03-12T08:56:40;4.23;;;1.27;;
69523;SDS011;56723;42.694;23.286;2023-03-12T08:59:09;2.53;;;1.00;;
69523;SDS011;56723;42.694;23.286;2023-03-12T09:01:37;3.83;;;1.10;;
69523;SDS011;56723;42.694;23.286;2023-03-12T09:04:08;2.03;;;1.27;;
69523;SDS011;56723;42.694;23.286;2023-03-12T09:06:37;2.75;;;1.48;;
69523;SDS011;56723;42.694;23.286;2023-03-12T09:09:04;2.17;;;1.27;;
69523;SDS011;56723;42.694;23.286;2023-03-12T09:11:32;2.37;;;1.23;;
69523;SDS011;56723;42.694;23.286;2023-03-12T09:14:00;2.17;;;1.40;;
69523;SDS011;56723;42.694;23.286;2023-03-12T09:16:47;4.40;;;1.87;;
69523;SDS011;56723;42.694;23.286;2023-03-12T09:19:15;2.43;;;1.30;;
69523;SDS011;56723;42.694;23.286;2023-03-12T09:21:42;1.67;;;0.93;;
69523;SDS011;56723;42.694;23.286;2023-03-12T09:24:10;2.23;;;1.00;;
69523;SDS011;56723;42.694;23.286;2023-03-12T09:26:39;2.60;;;0.90;;
69523;SDS011;56723;42.694;23.286;2023-03-12T09:29:06;3.67;;;1.40;;
69523;SDS011;56723;42.694;23.286;2023-03-12T09:31:33;1.33;;;0.80;;
69523;SDS011;56723;42.694;23.286;2023-03-12T09:34:02;2.07;;;1.20;;
69523;SDS011;56723;42.694;23.286;2023-03-12T09:36:30;2.67;;;1.20;;
69523;SDS011;56723;42.694;23.286;2023-03-12T09:38:58;2.30;;;1.30;;
69523;SDS011;56723;42.694;23.286;2023-03-12T09:41:26;3.00;;;1.30;;
69523;SDS011;56723;42.694;23.286;2023-03-12T09:46:40;2.03;;;1.13;;
69523;SDS011;56723;42.694;23.286;2023-03-12T09:49:16;2.73;;;1.30;;
69523;SDS011;56723;42.694;23.286;2023-03-12T09:51:48;2.20;;;1.03;;
69523;SDS011;56723;42.694;23.286;2023-03-12T09:54:24;2.33;;;1.33;;
69523;SDS011;56723;42.694;23.286;2023-03-12T09:56:59;2.60;;;1.30;;
69523;SDS011;56723;42.694;23.286;2023-03-12T09:59:29;1.73;;;0.90;;
69523;SDS011;56723;42.694;23.286;2023-03-12T10:01:57;1.90;;;1.40;;
69523;SDS011;56723;42.694;23.286;2023-03-12T10:04:43;1.30;;;0.83;;
69523;SDS011;56723;42.694;23.286;2023-03-12T10:07:33;3.40;;;0.97;;
69523;SDS011;56723;42.694;23.286;2023-03-12T10:10:11;2.13;;;1.00;;
69523;SDS011;56723;42.694;23.286;2023-03-12T10:13:03;2.77;;;1.10;;
69523;SDS011;56723;42.694;23.286;2023-03-12T10:27:10;3.40;;;1.00;;
69523;SDS011;56723;42.694;23.286;2023-03-12T10:29:40;1.77;;;1.00;;
69523;SDS011;56723;42.694;23.286;2023-03-12T10:34:38;1.60;;;0.80;;
69523;SDS011;56723;42.694;23.286;2023-03-12T10:37:24;1.37;;;0.70;;
69523;SDS011;56723;42.694;23.286;2023-03-12T10:39:55;2.13;;;0.73;;
69523;SDS011;56723;42.694;23.286;2023-03-12T10:42:23;2.20;;;0.40;;
69523;SDS011;56723;42.694;23.286;2023-03-12T10:45:00;1.53;;;0.67;;
69523;SDS011;56723;42.694;23.286;2023-03-12T10:47:53;1.53;;;1.03;;
69523;SDS011;56723;42.694;23.286;2023-03-12T10:50:34;3.97;;;0.90;;
69523;SDS011;56723;42.694;23.286;2023-03-12T10:56:07;7.67;;;0.77;;
69523;SDS011;56723;42.694;23.286;2023-03-12T10:58:38;2.80;;;0.93;;
69523;SDS011;56723;42.694;23.286;2023-03-12T11:03:50;2.00;;;0.77;;
69523;SDS011;56723;42.694;23.286;2023-03-12T11:06:26;1.45;;;0.57;;
69523;SDS011;56723;42.694;23.286;2023-03-12T11:09:14;2.37;;;0.70;;
69523;SDS011;56723;42.694;23.286;2023-03-12T11:11:47;1.67;;;0.40;;
69523;SDS011;56723;42.694;23.286;2023-03-12T11:14:17;2.57;;;0.90;;
69523;SDS011;56723;42.694;23.286;2023-03-12T11:16:49;2.50;;;1.07;;
69523;SDS011;56723;42.694;23.286;2023-03-12T11:19:30;3.57;;;0.70;;
69523;SDS011;56723;42.694;23.286;2023-03-12T11:22:02;1.80;;;0.80;;
69523;SDS011;56723;42.694;23.286;2023-03-12T11:24:31;1.30;;;0.60;;
69523;SDS011;56723;42.694;23.286;2023-03-12T11:27:03;2.03;;;0.50;;
69523;SDS011;56723;42.694;23.286;2023-03-12T11:29:34;2.00;;;1.00;;
69523;SDS011;56723;42.694;23.286;2023-03-12T11:32:19;1.03;;;0.30;;
69523;SDS011;56723;42.694;23.286;2023-03-12T11:34:54;1.17;;;0.55;;
69523;SDS011;56723;42.694;23.286;2023-03-12T11:43:23;1.40;;;0.50;;
69523;SDS011;56723;42.694;23.286;2023-03-12T11:46:20;1.77;;;0.57;;
69523;SDS011;56723;42.694;23.286;2023-03-12T11:49:03;1.57;;;0.90;;
69523;SDS011;56723;42.694;23.286;2023-03-12T11:51:45;1.70;;;0.50;;
69523;SDS011;56723;42.694;23.286;2023-03-12T11:54:21;1.37;;;0.50;;
69523;SDS011;56723;42.694;23.286;2023-03-12T12:00:17;2.83;;;0.80;;
69523;SDS011;56723;42.694;23.286;2023-03-12T12:03:12;2.50;;;0.70;;
69523;SDS011;56723;42.694;23.286;2023-03-12T12:06:05;2.00;;;0.90;;
69523;SDS011;56723;42.694;23.286;2023-03-12T12:08:45;2.60;;;0.73;;
69523;SDS011;56723;42.694;23.286;2023-03-12T12:24:57;1.83;;;0.77;;
69523;SDS011;56723;42.694;23.286;2023-03-12T12:30:50;1.53;;;0.90;;
69523;SDS011;56723;42.694;23.286;2023-03-12T12:36:10;4.87;;;1.23;;
69523;SDS011;56723;42.694;23.286;2023-03-12T12:38:43;2.90;;;1.27;;
69523;SDS011;56723;42.694;23.286;2023-03-12T12:41:17;1.47;;;0.67;;
69523;SDS011;56723;42.694;23.286;2023-03-12T12:43:49;1.33;;;0.70;;
69523;SDS011;56723;42.694;23.286;2023-03-12T12:46:20;1.03;;;0.50;;
69523;SDS011;56723;42.694;23.286;2023-03-12T12:48:55;2.43;;;0.60;;
69523;SDS011;56723;42.694;23.286;2023-03-12T12:51:38;2.00;;;0.43;;
69523;SDS011;56723;42.694;23.286;2023-03-12T12:56:47;1.70;;;0.70;;
69523;SDS011;56723;42.694;23.286;2023-03-12T12:59:36;1.83;;;0.70;;
69523;SDS011;56723;42.694;23.286;2023-03-12T13:02:19;3.60;;;1.00;;
69523;SDS011;56723;42.694;23.286;2023-03-12T13:04:48;1.83;;;0.80;;
69523;SDS011;56723;42.694;23.286;2023-03-12T13:09:47;2.50;;;0.70;;
69523;SDS011;56723;42.694;23.286;2023-03-12T13:14:58;2.40;;;1.30;;
69523;SDS011;56723;42.694;23.286;2023-03-12T13:20:10;2.53;;;1.00;;
69523;SDS011;56723;42.694;23.286;2023-03-12T13:30:51;3.20;;;0.60;;
69523;SDS011;56723;42.694;23.286;2023-03-12T13:33:35;2.20;;;0.70;;
69523;SDS011;56723;42.694;23.286;2023-03-12T13:38:38;2.37;;;1.07;;
69523;SDS011;56723;42.694;23.286;2023-03-12T13:41:47;1.50;;;0.90;;
69523;SDS011;56723;42.694;23.286;2023-03-12T13:52:39;3.07;;;1.20;;
69523;SDS011;56723;42.694;23.286;2023-03-12T13:55:27;2.33;;;0.93;;
69523;SDS011;56723;42.694;23.286;2023-03-12T13:57:58;4.53;;;1.33;;
69523;SDS011;56723;42.694;23.286;2023-03-12T14:03:14;2.57;;;1.57;;
69523;SDS011;56723;42.694;23.286;2023-03-12T14:05:52;3.72;;;1.75;;
69523;SDS011;56723;42.694;23.286;2023-03-12T14:08:28;3.55;;;1.80;;
69523;SDS011;56723;42.694;23.286;2023-03-12T14:16:47;2.28;;;1.10;;
69523;SDS011;56723;42.694;23.286;2023-03-12T14:19:18;1.70;;;0.90;;
69523;SDS011;56723;42.694;23.286;2023-03-12T14:21:49;1.27;;;0.65;;
69523;SDS011;56723;42.694;23.286;2023-03-12T14:27:04;1.70;;;0.70;;
69523;SDS011;56723;42.694;23.286;2023-03-12T14:29:37;2.70;;;0.82;;
69523;SDS011;56723;42.694;23.286;2023-03-12T14:32:17;1.80;;;1.02;;
69523;SDS011;56723;42.694;23.286;2023-03-12T14:35:32;1.77;;;1.00;;
69523;SDS011;56723;42.694;23.286;2023-03-12T14:37:41;2.97;;;2.42;;
69523;SDS011;56723;42.694;23.286;2023-03-12T14:40:18;2.65;;;0.95;;
69523;SDS011;56723;42.694;23.286;2023-03-12T14:42:48;2.92;;;1.00;;
69523;SDS011;56723;42.694;23.286;2023-03-12T14:45:19;2.85;;;1.45;;
69523;SDS011;56723;42.694;23.286;2023-03-12T14:47:52;3.07;;;1.20;;
69523;SDS011;56723;42.694;23.286;2023-03-12T14:50:23;2.83;;;1.13;;
69523;SDS011;56723;42.694;23.286;2023-03-12T14:52:55;2.83;;;1.10;;
69523;SDS011;56723;42.694;23.286;2023-03-12T14:55:40;1.97;;;1.17;;
69523;SDS011;56723;42.694;23.286;2023-03-12T14:58:17;2.53;;;0.60;;
69523;SDS011;56723;42.694;23.286;2023-03-12T15:00:53;3.65;;;0.93;;
69523;SDS011;56723;42.694;23.286;2023-03-12T15:03:28;2.75;;;1.58;;
69523;SDS011;56723;42.694;23.286;2023-03-12T15:05:56;2.57;;;1.37;;
69523;SDS011;56723;42.694;23.286;2023-03-12T15:08:24;2.75;;;1.00;;
69523;SDS011;56723;42.694;23.286;2023-03-12T15:10:55;3.23;;;0.67;;
69523;SDS011;56723;42.694;23.286;2023-03-12T15:13:23;1.90;;;0.70;;
69523;SDS011;56723;42.694;23.286;2023-03-12T15:15:53;3.25;;;1.52;;
69523;SDS011;56723;42.694;23.286;2023-03-12T15:18:25;2.90;;;1.20;;
69523;SDS011;56723;42.694;23.286;2023-03-12T15:20:54;3.47;;;1.60;;
69523;SDS011;56723;42.694;23.286;2023-03-12T15:23:23;3.78;;;1.88;;
69523;SDS011;56723;42.694;23.286;2023-03-12T15:28:41;2.73;;;1.30;;
69523;SDS011;56723;42.694;23.286;2023-03-12T15:31:11;2.87;;;1.37;;
69523;SDS011;56723;42.694;23.286;2023-03-12T15:33:44;1.83;;;1.10;;
69523;SDS011;56723;42.694;23.286;2023-03-12T15:36:25;3.80;;;3.17;;
69523;SDS011;56723;42.694;23.286;2023-03-12T15:41:42;3.70;;;3.20;;
69523;SDS011;56723;42.694;23.286;2023-03-12T15:47:02;9.00;;;7.80;;
69523;SDS011;56723;42.694;23.286;2023-03-12T15:49:35;1.93;;;1.07;;
69523;SDS011;56723;42.694;23.286;2023-03-12T15:52:05;2.05;;;1.13;;
69523;SDS011;56723;42.694;23.286;2023-03-12T15:57:51;4.00;;;1.67;;
69523;SDS011;56723;42.694;23.286;2023-03-12T16:00:23;2.50;;;1.00;;
69523;SDS011;56723;42.694;23.286;2023-03-12T16:03:01;3.57;;;1.10;;
69523;SDS011;56723;42.694;23.286;2023-03-12T16:05:32;2.40;;;1.10;;
69523;SDS011;56723;42.694;23.286;2023-03-12T16:08:22;2.67;;;1.33;;
69523;SDS011;56723;42.694;23.286;2023-03-12T16:10:54;8.10;;;4.30;;
69523;SDS011;56723;42.694;23.286;2023-03-12T16:13:22;4.30;;;1.90;;
69523;SDS011;56723;42.694;23.286;2023-03-12T16:15:53;14.97;;;7.10;;
69523;SDS011;56723;42.694;23.286;2023-03-12T16:18:21;20.47;;;11.50;;
69523;SDS011;56723;42.694;23.286;2023-03-12T16:20:49;16.20;;;8.07;;
69523;SDS011;56723;42.694;23.286;2023-03-12T16:23:17;6.15;;;2.90;;
69523;SDS011;56723;42.694;23.286;2023-03-12T16:25:46;5.57;;;2.60;;
69523;SDS011;56723;42.694;23.286;2023-03-12T16:28:16;19.53;;;7.23;;
69523;SDS011;56723;42.694;23.286;2023-03-12T16:30:44;4.10;;;1.90;;
69523;SDS011;56723;42.694;23.286;2023-03-12T16:33:12;3.83;;;1.70;;
69523;SDS011;56723;42.694;23.286;2023-03-12T16:35:44;11.73;;;4.27;;
69523;SDS011;56723;42.694;23.286;2023-03-12T16:38:11;8.20;;;3.33;;
69523;SDS011;56723;42.694;23.286;2023-03-12T16:40:43;20.17;;;6.33;;
69523;SDS011;56723;42.694;23.286;2023-03-12T16:43:13;10.93;;;3.63;;
69523;SDS011;56723;42.694;23.286;2023-03-12T16:45:43;5.37;;;3.03;;
69523;SDS011;56723;42.694;23.286;2023-03-12T16:48:13;153.50;;;42.63;;
69523;SDS011;56723;42.694;23.286;2023-03-12T16:53:13;35.30;;;13.83;;
69523;SDS011;56723;42.694;23.286;2023-03-12T16:58:19;103.90;;;29.33;;
69523;SDS011;56723;42.694;23.286;2023-03-12T17:00:46;7.00;;;3.63;;
69523;SDS011;56723;42.694;23.286;2023-03-12T17:03:56;83.57;;;21.87;;
69523;SDS011;56723;42.694;23.286;2023-03-12T17:06:05;20.03;;;6.60;;
69523;SDS011;56723;42.694;23.286;2023-03-12T17:08:33;41.23;;;12.67;;
69523;SDS011;56723;42.694;23.286;2023-03-12T17:11:01;135.93;;;44.47;;
69523;SDS011;56723;42.694;23.286;2023-03-12T17:13:35;15.20;;;5.67;;
69523;SDS011;56723;42.694;23.286;2023-03-12T17:16:02;18.33;;;6.17;;
69523;SDS011;56723;42.694;23.286;2023-03-12T17:18:29;4.67;;;2.70;;
69523;SDS011;56723;42.694;23.286;2023-03-12T17:20:56;11.87;;;5.13;;
69523;SDS011;56723;42.694;23.286;2023-03-12T17:23:23;21.30;;;9.23;;
69523;SDS011;56723;42.694;23.286;2023-03-12T17:25:50;14.80;;;7.50;;
69523;SDS011;56723;42.694;23.286;2023-03-12T17:28:17;3.37;;;2.00;;
69523;SDS011;56723;42.694;23.286;2023-03-12T17:30:44;2.93;;;1.60;;
69523;SDS011;56723;42.694;23.286;2023-03-12T17:33:14;6.43;;;5.78;;
69523;SDS011;56723;42.694;23.286;2023-03-12T17:38:10;4.53;;;2.20;;
69523;SDS011;56723;42.694;23.286;2023-03-12T17:40:38;6.50;;;5.90;;
69523;SDS011;56723;42.694;23.286;2023-03-12T17:43:06;4.05;;;3.03;;
69523;SDS011;56723;42.694;23.286;2023-03-12T17:45:33;6.17;;;4.83;;
69523;SDS011;56723;42.694;23.286;2023-03-12T17:48:02;3.63;;;2.35;;
69523;SDS011;56723;42.694;23.286;2023-03-12T17:50:29;5.13;;;2.60;;
69523;SDS011;56723;42.694;23.286;2023-03-12T17:52:56;5.60;;;3.37;;
69523;SDS011;56723;42.694;23.286;2023-03-12T17:55:23;3.53;;;2.30;;
69523;SDS011;56723;42.694;23.286;2023-03-12T17:57:50;6.60;;;3.23;;
69523;SDS011;56723;42.694;23.286;2023-03-12T18:00:17;6.03;;;3.50;;
69523;SDS011;56723;42.694;23.286;2023-03-12T18:02:46;13.90;;;9.50;;
69523;SDS011;56723;42.694;23.286;2023-03-12T18:05:14;20.43;;;12.20;;
69523;SDS011;56723;42.694;23.286;2023-03-12T18:07:41;12.33;;;6.97;;
69523;SDS011;56723;42.694;23.286;2023-03-12T18:10:09;15.83;;;8.63;;
69523;SDS011;56723;42.694;23.286;2023-03-12T18:12:36;22.07;;;12.27;;
69523;SDS011;56723;42.694;23.286;2023-03-12T18:15:06;21.00;;;11.73;;
69523;SDS011;56723;42.694;23.286;2023-03-12T18:17:34;26.57;;;13.93;;
69523;SDS011;56723;42.694;23.286;2023-03-12T18:20:00;18.23;;;10.00;;
69523;SDS011;56723;42.694;23.286;2023-03-12T18:22:35;25.93;;;13.70;;
69523;SDS011;56723;42.694;23.286;2023-03-12T18:25:04;21.70;;;12.17;;
69523;SDS011;56723;42.694;23.286;2023-03-12T18:27:32;20.47;;;12.00;;
69523;SDS011;56723;42.694;23.286;2023-03-12T18:29:59;19.17;;;9.70;;
69523;SDS011;56723;42.694;23.286;2023-03-12T18:32:26;22.73;;;12.73;;
69523;SDS011;56723;42.694;23.286;2023-03-12T18:34:53;20.67;;;10.50;;
69523;SDS011;56723;42.694;23.286;2023-03-12T18:37:20;13.90;;;7.27;;
69523;SDS011;56723;42.694;23.286;2023-03-12T18:39:48;19.67;;;11.97;;
69523;SDS011;56723;42.694;23.286;2023-03-12T18:42:15;32.53;;;14.40;;
69523;SDS011;56723;42.694;23.286;2023-03-12T18:44:42;15.47;;;8.93;;
69523;SDS011;56723;42.694;23.286;2023-03-12T18:47:09;22.87;;;12.17;;
69523;SDS011;56723;42.694;23.286;2023-03-12T18:49:36;16.73;;;8.47;;
69523;SDS011;56723;42.694;23.286;2023-03-12T18:52:03;14.67;;;6.80;;
69523;SDS011;56723;42.694;23.286;2023-03-12T18:54:30;15.97;;;7.67;;
69523;SDS011;56723;42.694;23.286;2023-03-12T18:56:59;16.95;;;9.02;;
69523;SDS011;56723;42.694;23.286;2023-03-12T18:59:26;14.73;;;8.83;;
69523;SDS011;56723;42.694;23.286;2023-03-12T19:01:56;15.17;;;8.20;;
69523;SDS011;56723;42.694;23.286;2023-03-12T19:04:23;14.77;;;7.70;;
69523;SDS011;56723;42.694;23.286;2023-03-12T19:06:51;14.63;;;7.63;;
69523;SDS011;56723;42.694;23.286;2023-03-12T19:09:18;12.93;;;6.93;;
69523;SDS011;56723;42.694;23.286;2023-03-12T19:11:45;17.20;;;11.27;;
69523;SDS011;56723;42.694;23.286;2023-03-12T19:14:13;23.03;;;13.47;;
69523;SDS011;56723;42.694;23.286;2023-03-12T19:16:40;22.50;;;12.47;;
69523;SDS011;56723;42.694;23.286;2023-03-12T19:19:07;19.83;;;12.17;;
69523;SDS011;56723;42.694;23.286;2023-03-12T19:21:34;27.03;;;15.43;;
69523;SDS011;56723;42.694;23.286;2023-03-12T19:24:01;37.47;;;18.27;;
69523;SDS011;56723;42.694;23.286;2023-03-12T19:26:28;33.30;;;17.67;;
69523;SDS011;56723;42.694;23.286;2023-03-12T19:28:55;33.10;;;16.73;;
69523;SDS011;56723;42.694;23.286;2023-03-12T19:31:22;38.23;;;19.50;;
69523;SDS011;56723;42.694;23.286;2023-03-12T19:33:49;42.90;;;22.70;;
69523;SDS011;56723;42.694;23.286;2023-03-12T19:36:17;46.80;;;24.43;;
69523;SDS011;56723;42.694;23.286;2023-03-12T19:38:44;47.83;;;22.73;;
69523;SDS011;56723;42.694;23.286;2023-03-12T19:41:10;36.83;;;20.73;;
69523;SDS011;56723;42.694;23.286;2023-03-12T19:43:37;30.23;;;16.77;;
69523;SDS011;56723;42.694;23.286;2023-03-12T19:46:06;36.60;;;18.03;;
69523;SDS011;56723;42.694;23.286;2023-03-12T19:48:33;28.23;;;16.03;;
69523;SDS011;56723;42.694;23.286;2023-03-12T19:51:03;28.53;;;16.30;;
69523;SDS011;56723;42.694;23.286;2023-03-12T19:53:32;30.93;;;16.40;;
69523;SDS011;56723;42.694;23.286;2023-03-12T19:55:59;23.70;;;13.03;;
69523;SDS011;56723;42.694;23.286;2023-03-12T19:58:26;32.00;;;17.63;;
69523;SDS011;56723;42.694;23.286;2023-03-12T20:00:53;22.40;;;13.47;;
69523;SDS011;56723;42.694;23.286;2023-03-12T20:03:23;16.03;;;8.63;;
69523;SDS011;56723;42.694;23.286;2023-03-12T20:05:50;25.33;;;12.47;;
69523;SDS011;56723;42.694;23.286;2023-03-12T20:08:17;18.73;;;10.33;;
69523;SDS011;56723;42.694;23.286;2023-03-12T20:10:46;27.92;;;15.15;;
69523;SDS011;56723;42.694;23.286;2023-03-12T20:13:14;53.37;;;24.17;;
69523;SDS011;56723;42.694;23.286;2023-03-12T20:15:43;32.00;;;19.88;;
69523;SDS011;56723;42.694;23.286;2023-03-12T20:18:14;22.93;;;13.67;;
69523;SDS011;56723;42.694;23.286;2023-03-12T20:20:41;38.73;;;18.17;;
69523;SDS011;56723;42.694;23.286;2023-03-12T20:23:08;36.23;;;18.27;;
69523;SDS011;56723;42.694;23.286;2023-03-12T20:25:38;26.70;;;13.33;;
69523;SDS011;56723;42.694;23.286;2023-03-12T20:28:08;29.70;;;17.83;;
69523;SDS011;56723;42.694;23.286;2023-03-12T20:30:37;30.03;;;15.80;;
69523;SDS011;56723;42.694;23.286;2023-03-12T20:33:06;15.47;;;10.43;;
69523;SDS011;56723;42.694;23.286;2023-03-12T20:35:34;19.80;;;13.00;;
69523;SDS011;56723;42.694;23.286;2023-03-12T20:38:01;19.57;;;11.67;;
69523;SDS011;56723;42.694;23.286;2023-03-12T20:40:28;17.03;;;10.37;;
69523;SDS011;56723;42.694;23.286;2023-03-12T20:42:55;18.03;;;9.87;;
69523;SDS011;56723;42.694;23.286;2023-03-12T20:45:22;24.07;;;12.30;;
69523;SDS011;56723;42.694;23.286;2023-03-12T20:47:49;20.67;;;12.43;;
69523;SDS011;56723;42.694;23.286;2023-03-12T20:50:17;31.27;;;15.10;;
69523;SDS011;56723;42.694;23.286;2023-03-12T20:52:44;32.67;;;20.17;;
69523;SDS011;56723;42.694;23.286;2023-03-12T20:55:11;30.53;;;17.27;;
69523;SDS011;56723;42.694;23.286;2023-03-12T20:57:38;32.00;;;17.27;;
69523;SDS011;56723;42.694;23.286;2023-03-12T21:00:05;32.20;;;15.50;;
69523;SDS011;56723;42.694;23.286;2023-03-12T21:02:36;28.93;;;15.07;;
69523;SDS011;56723;42.694;23.286;2023-03-12T21:05:03;28.87;;;15.00;;
69523;SDS011;56723;42.694;23.286;2023-03-12T21:07:31;29.50;;;15.20;;
69523;SDS011;56723;42.694;23.286;2023-03-12T21:09:57;23.93;;;13.47;;
69523;SDS011;56723;42.694;23.286;2023-03-12T21:12:24;28.70;;;15.00;;
69523;SDS011;56723;42.694;23.286;2023-03-12T21:14:51;21.60;;;14.17;;
69523;SDS011;56723;42.694;23.286;2023-03-12T21:17:19;26.27;;;14.33;;
69523;SDS011;56723;42.694;23.286;2023-03-12T21:19:46;25.77;;;14.67;;
69523;SDS011;56723;42.694;23.286;2023-03-12T21:22:14;24.23;;;14.23;;
69523;SDS011;56723;42.694;23.286;2023-03-12T21:24:41;23.17;;;14.23;;
69523;SDS011;56723;42.694;23.286;2023-03-12T21:27:08;22.03;;;14.63;;
69523;SDS011;56723;42.694;23.286;2023-03-12T21:29:36;25.87;;;13.80;;
69523;SDS011;56723;42.694;23.286;2023-03-12T21:32:03;26.30;;;15.17;;
69523;SDS011;56723;42.694;23.286;2023-03-12T21:34:31;26.70;;;14.90;;
69523;SDS011;56723;42.694;23.286;2023-03-12T21:36:58;28.17;;;15.93;;
69523;SDS011;56723;42.694;23.286;2023-03-12T21:39:25;27.97;;;16.00;;
69523;SDS011;56723;42.694;23.286;2023-03-12T21:41:52;30.30;;;16.57;;
69523;SDS011;56723;42.694;23.286;2023-03-12T21:44:19;24.77;;;15.03;;
69523;SDS011;56723;42.694;23.286;2023-03-12T21:46:46;23.57;;;13.40;;
69523;SDS011;56723;42.694;23.286;2023-03-12T21:49:13;21.97;;;13.20;;
69523;SDS011;56723;42.694;23.286;2023-03-12T21:51:43;23.43;;;11.23;;
69523;SDS011;56723;42.694;23.286;2023-03-12T21:54:10;21.53;;;11.57;;
69523;SDS011;56723;42.694;23.286;2023-03-12T21:56:37;24.20;;;13.20;;
69523;SDS011;56723;42.694;23.286;2023-03-12T21:59:08;24.67;;;14.20;;
69523;SDS011;56723;42.694;23.286;2023-03-12T22:01:36;23.25;;;12.77;;
69523;SDS011;56723;42.694;23.286;2023-03-12T22:04:03;17.23;;;11.27;;
69523;SDS011;56723;42.694;23.286;2023-03-12T22:06:31;21.20;;;12.07;;
69523;SDS011;56723;42.694;23.286;2023-03-12T22:08:58;24.47;;;11.80;;
69523;SDS011;56723;42.694;23.286;2023-03-12T22:11:25;20.93;;;9.67;;
69523;SDS011;56723;42.694;23.286;2023-03-12T22:13:52;15.33;;;8.10;;
69523;SDS011;56723;42.694;23.286;2023-03-12T22:16:18;14.23;;;9.17;;
69523;SDS011;56723;42.694;23.286;2023-03-12T22:18:45;15.57;;;8.60;;
69523;SDS011;56723;42.694;23.286;2023-03-12T22:21:14;11.70;;;7.57;;
69523;SDS011;56723;42.694;23.286;2023-03-12T22:23:42;9.83;;;7.63;;
69523;SDS011;56723;42.694;23.286;2023-03-12T22:26:09;10.33;;;7.27;;
69523;SDS011;56723;42.694;23.286;2023-03-12T22:28:36;9.07;;;6.73;;
69523;SDS011;56723;42.694;23.286;2023-03-12T22:31:04;8.77;;;6.30;;
69523;SDS011;56723;42.694;23.286;2023-03-12T22:36:07;11.80;;;7.83;;
69523;SDS011;56723;42.694;23.286;2023-03-12T22:38:36;15.93;;;8.60;;
69523;SDS011;56723;42.694;23.286;2023-03-12T22:41:17;18.43;;;10.27;;